sensor_id;sensor_type;location;lat;lon;timestamp;pressure;altitude;pressure_sealevel;temperature;humidity
51147;BME280;37207;53.060;18.726;2023-02-23T00:01:24;101170.13;;;-0.56;74.03
51147;BME280;37207;53.060;18.726;2023-02-23T00:03:57;101165.64;;;-0.58;73.80
51147;BME280;37207;53.060;18.726;2023-02-23T00:06:27;101162.94;;;-0.60;73.81
51147;BME280;37207;53.060;18.726;2023-02-23T00:08:53;101161.55;;;-0.60;73.78
51147;BME280;37207;53.060;18.726;2023-02-23T00:11:20;101152.80;;;-0.62;73.78
51147;BME280;37207;53.060;18.726;2023-02-23T00:13:48;101152.25;;;-0.64;73.64
51147;BME280;37207;53.060;18.726;2023-02-23T00:16:22;101157.14;;;-0.65;73.74
51147;BME280;37207;53.060;18.726;2023-02-23T00:18:53;101151.72;;;-0.67;73.80
51147;BME280;37207;53.060;18.726;2023-02-23T00:21:23;101152.68;;;-0.70;73.52
51147;BME280;37207;53.060;18.726;2023-02-23T00:23:52;101153.16;;;-0.74;73.64
51147;BME280;37207;53.060;18.726;2023-02-23T00:26:20;101153.64;;;-0.77;73.64
51147;BME280;37207;53.060;18.726;2023-02-23T00:28:47;101157.20;;;-0.81;73.86
51147;BME280;37207;53.060;18.726;2023-02-23T00:31:13;101154.13;;;-0.85;73.71
51147;BME280;37207;53.060;18.726;2023-02-23T00:33:39;101156.33;;;-0.88;73.85
51147;BME280;37207;53.060;18.726;2023-02-23T00:36:10;101156.88;;;-0.91;73.71
51147;BME280;37207;53.060;18.726;2023-02-23T00:38:38;101159.28;;;-0.93;73.97
51147;BME280;37207;53.060;18.726;2023-02-23T00:41:10;101157.82;;;-0.95;74.05
51147;BME280;37207;53.060;18.726;2023-02-23T00:43:40;101155.04;;;-0.99;74.29
51147;BME280;37207;53.060;18.726;2023-02-23T00:46:16;101153.88;;;-1.03;74.15
51147;BME280;37207;53.060;18.726;2023-02-23T00:48:44;101156.70;;;-1.06;74.48
51147;BME280;37207;53.060;18.726;2023-02-23T00:51:11;101155.23;;;-1.10;74.44
51147;BME280;37207;53.060;18.726;2023-02-23T00:53:40;101153.69;;;-1.13;74.51
51147;BME280;37207;53.060;18.726;2023-02-23T00:56:07;101149.97;;;-1.16;74.76
51147;BME280;37207;53.060;18.726;2023-02-23T00:58:35;101150.21;;;-1.19;74.84
51147;BME280;37207;53.060;18.726;2023-02-23T01:01:06;101148.76;;;-1.22;74.66
51147;BME280;37207;53.060;18.726;2023-02-23T01:03:34;101150.16;;;-1.23;74.99
51147;BME280;37207;53.060;18.726;2023-02-23T01:06:04;101148.77;;;-1.26;75.05
51147;BME280;37207;53.060;18.726;2023-02-23T01:08:32;101147.62;;;-1.28;74.98
51147;BME280;37207;53.060;18.726;2023-02-23T01:11:03;101146.53;;;-1.31;75.04
51147;BME280;37207;53.060;18.726;2023-02-23T01:13:31;101143.43;;;-1.33;75.20
51147;BME280;37207;53.060;18.726;2023-02-23T01:15:57;101149.55;;;-1.35;75.68
51147;BME280;37207;53.060;18.726;2023-02-23T01:18:24;101151.17;;;-1.37;75.55
51147;BME280;37207;53.060;18.726;2023-02-23T01:20:50;101150.82;;;-1.39;75.64
51147;BME280;37207;53.060;18.726;2023-02-23T01:23:16;101150.28;;;-1.42;76.02
51147;BME280;37207;53.060;18.726;2023-02-23T01:25:45;101151.83;;;-1.45;75.80
51147;BME280;37207;53.060;18.726;2023-02-23T01:28:14;101148.04;;;-1.46;76.33
51147;BME280;37207;53.060;18.726;2023-02-23T01:30:40;101151.05;;;-1.47;75.99
51147;BME280;37207;53.060;18.726;2023-02-23T01:33:06;101151.91;;;-1.51;76.55
51147;BME280;37207;53.060;18.726;2023-02-23T01:35:34;101149.20;;;-1.52;76.50
51147;BME280;37207;53.060;18.726;2023-02-23T01:38:01;101149.35;;;-1.53;76.63
51147;BME280;37207;53.060;18.726;2023-02-23T01:40:28;101145.25;;;-1.54;76.33
51147;BME280;37207;53.060;18.726;2023-02-23T01:43:13;101143.33;;;-1.55;76.63
51147;BME280;37207;53.060;18.726;2023-02-23T01:45:47;101136.52;;;-1.56;76.58
51147;BME280;37207;53.060;18.726;2023-02-23T01:48:19;101136.06;;;-1.57;76.79
51147;BME280;37207;53.060;18.726;2023-02-23T01:50:53;101129.26;;;-1.58;77.00
51147;BME280;37207;53.060;18.726;2023-02-23T01:53:21;101126.55;;;-1.60;76.93
51147;BME280;37207;53.060;18.726;2023-02-23T01:55:52;101122.36;;;-1.62;76.99
51147;BME280;37207;53.060;18.726;2023-02-23T01:58:23;101117.95;;;-1.63;77.46
51147;BME280;37207;53.060;18.726;2023-02-23T02:00:54;101110.83;;;-1.66;77.29
51147;BME280;37207;53.060;18.726;2023-02-23T02:03:31;101105.72;;;-1.68;77.25
51147;BME280;37207;53.060;18.726;2023-02-23T02:06:00;101107.81;;;-1.70;76.87
51147;BME280;37207;53.060;18.726;2023-02-23T02:08:29;101102.55;;;-1.72;77.42
51147;BME280;37207;53.060;18.726;2023-02-23T02:10:58;101100.33;;;-1.73;77.04
51147;BME280;37207;53.060;18.726;2023-02-23T02:13:27;101097.55;;;-1.76;77.54
51147;BME280;37207;53.060;18.726;2023-02-23T02:16:07;101096.85;;;-1.77;77.50
51147;BME280;37207;53.060;18.726;2023-02-23T02:22:18;101090.19;;;-1.81;77.66
51147;BME280;37207;53.060;18.726;2023-02-23T02:28:11;101087.95;;;-1.83;77.78
51147;BME280;37207;53.060;18.726;2023-02-23T02:41:24;101084.34;;;-1.91;78.02
51147;BME280;37207;53.060;18.726;2023-02-23T02:44:01;101082.02;;;-1.91;78.15
51147;BME280;37207;53.060;18.726;2023-02-23T02:46:36;101081.24;;;-1.91;77.82
51147;BME280;37207;53.060;18.726;2023-02-23T02:49:06;101077.91;;;-1.93;78.03
51147;BME280;37207;53.060;18.726;2023-02-23T02:51:42;101084.17;;;-1.94;77.96
51147;BME280;37207;53.060;18.726;2023-02-23T02:54:24;101084.95;;;-1.94;78.33
51147;BME280;37207;53.060;18.726;2023-02-23T02:56:54;101084.80;;;-1.95;78.20
51147;BME280;37207;53.060;18.726;2023-02-23T02:59:23;101083.17;;;-1.95;78.22
51147;BME280;37207;53.060;18.726;2023-02-23T03:02:16;101089.36;;;-1.94;78.18
51147;BME280;37207;53.060;18.726;2023-02-23T03:05:14;101086.27;;;-1.95;78.21
51147;BME280;37207;53.060;18.726;2023-02-23T03:08:27;101083.10;;;-1.95;78.40
51147;BME280;37207;53.060;18.726;2023-02-23T03:11:15;101082.48;;;-1.96;78.51
51147;BME280;37207;53.060;18.726;2023-02-23T03:23:42;101076.98;;;-2.00;78.25
51147;BME280;37207;53.060;18.726;2023-02-23T03:26:43;101076.59;;;-2.01;78.59
51147;BME280;37207;53.060;18.726;2023-02-23T03:29:56;101079.91;;;-2.02;78.62
51147;BME280;37207;53.060;18.726;2023-02-23T03:32:47;101076.35;;;-2.03;78.57
51147;BME280;37207;53.060;18.726;2023-02-23T03:35:50;101075.35;;;-2.04;78.88
51147;BME280;37207;53.060;18.726;2023-02-23T03:39:12;101075.04;;;-2.04;78.58
51147;BME280;37207;53.060;18.726;2023-02-23T03:42:01;101070.01;;;-2.05;78.51
51147;BME280;37207;53.060;18.726;2023-02-23T03:44:49;101071.41;;;-2.05;78.84
51147;BME280;37207;53.060;18.726;2023-02-23T03:47:39;101064.14;;;-2.04;78.83
51147;BME280;37207;53.060;18.726;2023-02-23T03:50:30;101068.63;;;-2.06;78.88
51147;BME280;37207;53.060;18.726;2023-02-23T03:53:22;101066.84;;;-2.07;78.68
51147;BME280;37207;53.060;18.726;2023-02-23T03:56:10;101063.23;;;-2.08;78.92
51147;BME280;37207;53.060;18.726;2023-02-23T03:58:59;101067.02;;;-2.09;78.89
51147;BME280;37207;53.060;18.726;2023-02-23T04:01:47;101063.55;;;-2.09;79.01
51147;BME280;37207;53.060;18.726;2023-02-23T04:04:34;101065.95;;;-2.09;79.25
51147;BME280;37207;53.060;18.726;2023-02-23T04:07:20;101062.15;;;-2.09;78.89
51147;BME280;37207;53.060;18.726;2023-02-23T04:10:05;101063.85;;;-2.10;79.26
51147;BME280;37207;53.060;18.726;2023-02-23T04:13:07;101061.98;;;-2.11;78.94
51147;BME280;37207;53.060;18.726;2023-02-23T04:15:49;101059.13;;;-2.12;78.92
51147;BME280;37207;53.060;18.726;2023-02-23T04:18:24;101059.05;;;-2.12;79.36
51147;BME280;37207;53.060;18.726;2023-02-23T04:20:50;101056.11;;;-2.13;79.18
51147;BME280;37207;53.060;18.726;2023-02-23T04:23:17;101055.48;;;-2.13;79.13
51147;BME280;37207;53.060;18.726;2023-02-23T04:25:43;101055.57;;;-2.14;79.38
51147;BME280;37207;53.060;18.726;2023-02-23T04:28:09;101053.02;;;-2.14;79.28
51147;BME280;37207;53.060;18.726;2023-02-23T04:30:35;101047.99;;;-2.14;79.35
51147;BME280;37207;53.060;18.726;2023-02-23T04:33:02;101044.35;;;-2.13;79.31
51147;BME280;37207;53.060;18.726;2023-02-23T04:35:27;101040.41;;;-2.13;79.26
51147;BME280;37207;53.060;18.726;2023-02-23T04:37:56;101038.39;;;-2.13;79.49
51147;BME280;37207;53.060;18.726;2023-02-23T04:40:22;101035.85;;;-2.14;79.38
51147;BME280;37207;53.060;18.726;2023-02-23T04:42:48;101031.20;;;-2.13;79.34
51147;BME280;37207;53.060;18.726;2023-02-23T04:45:14;101031.13;;;-2.13;79.48
51147;BME280;37207;53.060;18.726;2023-02-23T04:47:40;101026.27;;;-2.13;79.44
51147;BME280;37207;53.060;18.726;2023-02-23T04:50:06;101028.19;;;-2.14;79.53
51147;BME280;37207;53.060;18.726;2023-02-23T04:52:33;101024.63;;;-2.15;79.61
51147;BME280;37207;53.060;18.726;2023-02-23T04:55:00;101021.85;;;-2.13;79.38
51147;BME280;37207;53.060;18.726;2023-02-23T04:57:25;101022.39;;;-2.13;79.40
51147;BME280;37207;53.060;18.726;2023-02-23T04:59:52;101021.00;;;-2.13;79.93
51147;BME280;37207;53.060;18.726;2023-02-23T05:02:18;101023.01;;;-2.12;79.47
51147;BME280;37207;53.060;18.726;2023-02-23T05:04:44;101020.08;;;-2.12;79.54
51147;BME280;37207;53.060;18.726;2023-02-23T05:07:10;101019.23;;;-2.11;79.57
51147;BME280;37207;53.060;18.726;2023-02-23T05:09:36;101015.90;;;-2.11;79.41
51147;BME280;37207;53.060;18.726;2023-02-23T05:12:02;101013.42;;;-2.12;79.54
51147;BME280;37207;53.060;18.726;2023-02-23T05:14:28;101010.80;;;-2.12;79.33
51147;BME280;37207;53.060;18.726;2023-02-23T05:16:54;101006.46;;;-2.11;79.25
51147;BME280;37207;53.060;18.726;2023-02-23T05:19:20;101007.32;;;-2.11;79.55
51147;BME280;37207;53.060;18.726;2023-02-23T05:21:46;101006.62;;;-2.11;79.47
51147;BME280;37207;53.060;18.726;2023-02-23T05:24:12;101002.59;;;-2.11;79.24
51147;BME280;37207;53.060;18.726;2023-02-23T05:26:38;101001.73;;;-2.11;79.51
51147;BME280;37207;53.060;18.726;2023-02-23T05:29:04;100999.81;;;-2.11;79.45
51147;BME280;37207;53.060;18.726;2023-02-23T05:35:43;100994.09;;;-2.09;79.63
51147;BME280;37207;53.060;18.726;2023-02-23T05:38:09;100996.41;;;-2.08;79.19
51147;BME280;37207;53.060;18.726;2023-02-23T05:40:35;100994.55;;;-2.08;78.92
51147;BME280;37207;53.060;18.726;2023-02-23T05:43:01;100991.92;;;-2.08;79.09
51147;BME280;37207;53.060;18.726;2023-02-23T05:45:28;100990.06;;;-2.08;79.08
51147;BME280;37207;53.060;18.726;2023-02-23T05:47:53;100990.67;;;-2.08;78.94
51147;BME280;37207;53.060;18.726;2023-02-23T05:50:19;100987.75;;;-2.08;78.89
51147;BME280;37207;53.060;18.726;2023-02-23T05:52:45;100989.77;;;-2.08;78.82
51147;BME280;37207;53.060;18.726;2023-02-23T05:55:11;100988.73;;;-2.07;78.83
51147;BME280;37207;53.060;18.726;2023-02-23T05:57:38;100989.96;;;-2.06;79.04
51147;BME280;37207;53.060;18.726;2023-02-23T06:00:06;100989.58;;;-2.04;78.74
51147;BME280;37207;53.060;18.726;2023-02-23T06:02:32;100991.27;;;-2.03;78.89
51147;BME280;37207;53.060;18.726;2023-02-23T06:04:59;100991.73;;;-2.02;78.72
51147;BME280;37207;53.060;18.726;2023-02-23T06:07:24;100991.52;;;-2.01;78.83
51147;BME280;37207;53.060;18.726;2023-02-23T06:09:50;100991.36;;;-2.01;78.66
51147;BME280;37207;53.060;18.726;2023-02-23T06:12:16;100991.81;;;-1.99;78.95
51147;BME280;37207;53.060;18.726;2023-02-23T06:14:42;100987.41;;;-1.98;78.53
51147;BME280;37207;53.060;18.726;2023-02-23T06:17:08;100985.17;;;-1.96;78.72
51147;BME280;37207;53.060;18.726;2023-02-23T06:19:34;100982.92;;;-1.94;78.53
51147;BME280;37207;53.060;18.726;2023-02-23T06:22:00;100982.42;;;-1.91;78.80
51147;BME280;37207;53.060;18.726;2023-02-23T06:24:25;100981.18;;;-1.87;78.76
51147;BME280;37207;53.060;18.726;2023-02-23T06:26:51;100983.50;;;-1.84;78.80
51147;BME280;37207;53.060;18.726;2023-02-23T06:29:17;100980.95;;;-1.81;78.63
51147;BME280;37207;53.060;18.726;2023-02-23T06:31:43;100981.09;;;-1.78;78.56
51147;BME280;37207;53.060;18.726;2023-02-23T06:34:09;100981.31;;;-1.77;78.34
51147;BME280;37207;53.060;18.726;2023-02-23T06:36:36;100977.28;;;-1.72;78.53
51147;BME280;37207;53.060;18.726;2023-02-23T06:39:02;100979.49;;;-1.68;78.43
51147;BME280;37207;53.060;18.726;2023-02-23T06:41:29;100980.88;;;-1.64;78.42
51147;BME280;37207;53.060;18.726;2023-02-23T06:43:55;100982.80;;;-1.59;78.19
51147;BME280;37207;53.060;18.726;2023-02-23T06:46:22;100980.54;;;-1.56;78.02
51147;BME280;37207;53.060;18.726;2023-02-23T06:48:49;100979.36;;;-1.52;78.07
51147;BME280;37207;53.060;18.726;2023-02-23T06:51:18;100975.48;;;-1.47;77.96
51147;BME280;37207;53.060;18.726;2023-02-23T06:53:44;100973.77;;;-1.41;77.72
51147;BME280;37207;53.060;18.726;2023-02-23T06:56:10;100972.39;;;-1.36;78.06
51147;BME280;37207;53.060;18.726;2023-02-23T06:58:37;100973.23;;;-1.31;77.82
51147;BME280;37207;53.060;18.726;2023-02-23T07:01:03;100973.44;;;-1.26;77.67
51147;BME280;37207;53.060;18.726;2023-02-23T07:03:29;100974.70;;;-1.20;77.55
51147;BME280;37207;53.060;18.726;2023-02-23T07:05:54;100973.83;;;-1.13;77.43
51147;BME280;37207;53.060;18.726;2023-02-23T07:08:20;100971.92;;;-1.06;77.26
51147;BME280;37207;53.060;18.726;2023-02-23T07:10:47;100968.54;;;-0.98;77.17
51147;BME280;37207;53.060;18.726;2023-02-23T07:13:13;100969.02;;;-0.88;77.16
51147;BME280;37207;53.060;18.726;2023-02-23T07:15:40;100969.18;;;-0.79;76.90
51147;BME280;37207;53.060;18.726;2023-02-23T07:18:06;100968.10;;;-0.69;76.98
51147;BME280;37207;53.060;18.726;2023-02-23T07:20:33;100969.74;;;-0.60;76.86
51147;BME280;37207;53.060;18.726;2023-02-23T07:22:59;100964.91;;;-0.48;76.76
51147;BME280;37207;53.060;18.726;2023-02-23T07:25:27;100962.88;;;-0.37;76.34
51147;BME280;37207;53.060;18.726;2023-02-23T07:27:54;100957.13;;;-0.27;76.01
51147;BME280;37207;53.060;18.726;2023-02-23T07:30:21;100960.25;;;-0.15;75.73
51147;BME280;37207;53.060;18.726;2023-02-23T07:32:54;100957.90;;;0.03;75.47
51147;BME280;37207;53.060;18.726;2023-02-23T07:35:19;100950.61;;;0.23;74.98
51147;BME280;37207;53.060;18.726;2023-02-23T07:37:45;100950.23;;;0.41;74.33
51147;BME280;37207;53.060;18.726;2023-02-23T07:40:12;100948.09;;;0.57;73.61
51147;BME280;37207;53.060;18.726;2023-02-23T07:42:38;100942.88;;;0.76;73.63
51147;BME280;37207;53.060;18.726;2023-02-23T07:45:05;100938.83;;;0.92;73.31
51147;BME280;37207;53.060;18.726;2023-02-23T07:47:31;100936.14;;;1.11;73.31
51147;BME280;37207;53.060;18.726;2023-02-23T07:49:57;100939.84;;;1.37;73.32
51147;BME280;37207;53.060;18.726;2023-02-23T07:52:25;100935.64;;;1.78;72.53
51147;BME280;37207;53.060;18.726;2023-02-23T07:54:51;100934.70;;;2.30;72.20
51147;BME280;37207;53.060;18.726;2023-02-23T07:57:17;100929.26;;;2.95;71.07
51147;BME280;37207;53.060;18.726;2023-02-23T07:59:43;100930.56;;;3.72;70.40
51147;BME280;37207;53.060;18.726;2023-02-23T08:02:12;100932.05;;;4.48;68.84
51147;BME280;37207;53.060;18.726;2023-02-23T08:04:38;100922.26;;;5.22;68.18
51147;BME280;37207;53.060;18.726;2023-02-23T08:07:06;100918.96;;;5.90;67.91
51147;BME280;37207;53.060;18.726;2023-02-23T08:09:32;100916.11;;;6.57;65.95
51147;BME280;37207;53.060;18.726;2023-02-23T08:12:01;100907.80;;;7.07;64.54
51147;BME280;37207;53.060;18.726;2023-02-23T08:14:27;100909.55;;;7.54;62.71
51147;BME280;37207;53.060;18.726;2023-02-23T08:16:53;100905.00;;;8.02;62.14
51147;BME280;37207;53.060;18.726;2023-02-23T08:19:19;100898.48;;;8.32;61.21
51147;BME280;37207;53.060;18.726;2023-02-23T08:21:49;100895.59;;;7.96;61.13
51147;BME280;37207;53.060;18.726;2023-02-23T08:24:15;100889.84;;;7.20;60.97
51147;BME280;37207;53.060;18.726;2023-02-23T08:26:41;100888.56;;;6.56;60.74
51147;BME280;37207;53.060;18.726;2023-02-23T08:29:10;100888.46;;;5.97;61.65
51147;BME280;37207;53.060;18.726;2023-02-23T08:31:36;100888.14;;;5.43;61.14
51147;BME280;37207;53.060;18.726;2023-02-23T08:34:01;100887.94;;;4.92;62.03
51147;BME280;37207;53.060;18.726;2023-02-23T08:36:27;100887.45;;;4.57;62.28
51147;BME280;37207;53.060;18.726;2023-02-23T08:38:53;100888.30;;;4.26;62.47
51147;BME280;37207;53.060;18.726;2023-02-23T08:41:20;100883.38;;;3.99;62.58
51147;BME280;37207;53.060;18.726;2023-02-23T08:43:52;100880.96;;;3.76;63.29
51147;BME280;37207;53.060;18.726;2023-02-23T08:46:18;100878.02;;;3.63;63.80
51147;BME280;37207;53.060;18.726;2023-02-23T08:48:49;100875.30;;;3.54;63.98
51147;BME280;37207;53.060;18.726;2023-02-23T08:51:15;100876.89;;;3.44;64.01
51147;BME280;37207;53.060;18.726;2023-02-23T08:53:41;100879.60;;;3.32;63.92
51147;BME280;37207;53.060;18.726;2023-02-23T08:56:11;100879.27;;;3.27;64.47
51147;BME280;37207;53.060;18.726;2023-02-23T08:58:38;100873.53;;;3.26;64.63
51147;BME280;37207;53.060;18.726;2023-02-23T09:01:04;100869.83;;;3.24;64.77
51147;BME280;37207;53.060;18.726;2023-02-23T09:03:31;100868.90;;;3.21;64.36
51147;BME280;37207;53.060;18.726;2023-02-23T09:06:12;100862.36;;;3.17;64.31
51147;BME280;37207;53.060;18.726;2023-02-23T09:08:47;100863.64;;;3.15;64.98
51147;BME280;37207;53.060;18.726;2023-02-23T09:11:13;100861.31;;;3.19;65.09
51147;BME280;37207;53.060;18.726;2023-02-23T09:13:39;100854.62;;;3.21;65.43
51147;BME280;37207;53.060;18.726;2023-02-23T09:16:05;100851.30;;;3.23;64.96
51147;BME280;37207;53.060;18.726;2023-02-23T09:18:32;100850.68;;;3.20;64.78
51147;BME280;37207;53.060;18.726;2023-02-23T09:20:58;100846.02;;;3.19;64.98
51147;BME280;37207;53.060;18.726;2023-02-23T09:23:27;100841.04;;;3.18;64.97
51147;BME280;37207;53.060;18.726;2023-02-23T09:26:04;100835.04;;;3.21;65.38
51147;BME280;37207;53.060;18.726;2023-02-23T09:28:31;100830.44;;;3.27;65.38
51147;BME280;37207;53.060;18.726;2023-02-23T09:31:09;100830.59;;;3.36;65.78
51147;BME280;37207;53.060;18.726;2023-02-23T09:33:36;100831.29;;;3.48;65.86
51147;BME280;37207;53.060;18.726;2023-02-23T09:36:08;100830.03;;;3.57;65.45
51147;BME280;37207;53.060;18.726;2023-02-23T09:38:38;100829.47;;;3.61;65.24
51147;BME280;37207;53.060;18.726;2023-02-23T09:49:20;100817.56;;;3.81;65.20
51147;BME280;37207;53.060;18.726;2023-02-23T09:51:56;100815.26;;;3.97;65.27
51147;BME280;37207;53.060;18.726;2023-02-23T09:54:29;100809.98;;;4.42;65.17
51147;BME280;37207;53.060;18.726;2023-02-23T09:57:04;100805.75;;;5.33;63.94
51147;BME280;37207;53.060;18.726;2023-02-23T09:59:33;100804.08;;;6.56;62.52
51147;BME280;37207;53.060;18.726;2023-02-23T10:05:01;100795.77;;;9.08;59.36
51147;BME280;37207;53.060;18.726;2023-02-23T10:26:24;100772.65;;;9.00;55.82
51147;BME280;37207;53.060;18.726;2023-02-23T10:28:54;100775.30;;;8.64;56.31
51147;BME280;37207;53.060;18.726;2023-02-23T10:31:28;100776.70;;;8.34;56.50
51147;BME280;37207;53.060;18.726;2023-02-23T10:34:01;100780.98;;;8.10;56.36
51147;BME280;37207;53.060;18.726;2023-02-23T10:36:38;100775.66;;;7.84;56.92
51147;BME280;37207;53.060;18.726;2023-02-23T10:39:08;100776.45;;;7.70;57.62
51147;BME280;37207;53.060;18.726;2023-02-23T10:41:35;100775.17;;;7.68;58.62
51147;BME280;37207;53.060;18.726;2023-02-23T10:44:09;100771.96;;;7.77;58.78
51147;BME280;37207;53.060;18.726;2023-02-23T10:46:38;100774.80;;;7.85;58.51
51147;BME280;37207;53.060;18.726;2023-02-23T10:49:18;100772.71;;;7.88;58.20
51147;BME280;37207;53.060;18.726;2023-02-23T10:51:48;100766.66;;;7.98;58.75
51147;BME280;37207;53.060;18.726;2023-02-23T10:54:38;100768.94;;;8.16;58.43
51147;BME280;37207;53.060;18.726;2023-02-23T10:57:11;100761.33;;;8.42;59.07
51147;BME280;37207;53.060;18.726;2023-02-23T11:02:32;100754.93;;;9.08;57.89
51147;BME280;37207;53.060;18.726;2023-02-23T11:05:02;100748.23;;;9.46;57.64
51147;BME280;37207;53.060;18.726;2023-02-23T11:07:32;100739.73;;;9.95;56.83
51147;BME280;37207;53.060;18.726;2023-02-23T11:10:25;100741.34;;;10.55;55.00
51147;BME280;37207;53.060;18.726;2023-02-23T11:12:52;100735.48;;;11.04;54.08
51147;BME280;37207;53.060;18.726;2023-02-23T11:15:30;100735.75;;;11.44;53.26
51147;BME280;37207;53.060;18.726;2023-02-23T11:18:00;100728.64;;;11.92;52.21
51147;BME280;37207;53.060;18.726;2023-02-23T11:20:33;100727.44;;;12.46;52.75
51147;BME280;37207;53.060;18.726;2023-02-23T11:23:28;100721.59;;;13.16;51.71
51147;BME280;37207;53.060;18.726;2023-02-23T11:28:56;100714.19;;;14.16;47.94
51147;BME280;37207;53.060;18.726;2023-02-23T11:31:34;100717.14;;;13.82;47.04
51147;BME280;37207;53.060;18.726;2023-02-23T11:34:03;100715.20;;;13.20;47.41
51147;BME280;37207;53.060;18.726;2023-02-23T11:36:35;100710.28;;;12.84;49.54
51147;BME280;37207;53.060;18.726;2023-02-23T11:39:03;100704.12;;;13.08;49.30
51147;BME280;37207;53.060;18.726;2023-02-23T11:41:31;100701.39;;;13.56;48.83
51147;BME280;37207;53.060;18.726;2023-02-23T11:44:00;100697.09;;;13.95;48.98
51147;BME280;37207;53.060;18.726;2023-02-23T11:46:31;100692.63;;;14.11;48.38
51147;BME280;37207;53.060;18.726;2023-02-23T11:49:06;100690.08;;;14.21;48.34
51147;BME280;37207;53.060;18.726;2023-02-23T11:51:38;100687.21;;;14.18;46.84
51147;BME280;37207;53.060;18.726;2023-02-23T11:54:31;100677.98;;;14.03;47.11
51147;BME280;37207;53.060;18.726;2023-02-23T11:56:58;100676.17;;;14.04;46.42
51147;BME280;37207;53.060;18.726;2023-02-23T11:59:33;100667.51;;;13.92;46.12
51147;BME280;37207;53.060;18.726;2023-02-23T12:02:05;100668.71;;;13.93;46.48
51147;BME280;37207;53.060;18.726;2023-02-23T12:04:46;100667.09;;;13.96;46.47
51147;BME280;37207;53.060;18.726;2023-02-23T12:13:02;100660.84;;;13.25;47.05
51147;BME280;37207;53.060;18.726;2023-02-23T12:15:58;100657.08;;;12.92;47.79
51147;BME280;37207;53.060;18.726;2023-02-23T12:18:59;100652.73;;;12.56;47.96
51147;BME280;37207;53.060;18.726;2023-02-23T12:24:45;100646.83;;;11.75;49.46
51147;BME280;37207;53.060;18.726;2023-02-23T12:35:11;100618.52;;;10.83;49.98
51147;BME280;37207;53.060;18.726;2023-02-23T12:37:41;100613.20;;;10.89;50.30
51147;BME280;37207;53.060;18.726;2023-02-23T12:40:26;100603.48;;;11.08;50.78
51147;BME280;37207;53.060;18.726;2023-02-23T12:45:51;100591.81;;;11.26;50.42
51147;BME280;37207;53.060;18.726;2023-02-23T12:48:55;100591.02;;;11.25;51.00
51147;BME280;37207;53.060;18.726;2023-02-23T12:53:53;100580.88;;;11.20;50.91
51147;BME280;37207;53.060;18.726;2023-02-23T13:02:02;100575.25;;;10.63;51.93
51147;BME280;37207;53.060;18.726;2023-02-23T13:04:52;100569.29;;;10.45;52.33
51147;BME280;37207;53.060;18.726;2023-02-23T13:10:21;100557.03;;;10.27;53.01
51147;BME280;37207;53.060;18.726;2023-02-23T13:13:18;100550.27;;;10.25;52.95
51147;BME280;37207;53.060;18.726;2023-02-23T13:18:44;100545.56;;;10.02;53.17
51147;BME280;37207;53.060;18.726;2023-02-23T13:21:27;100536.16;;;9.93;53.47
51147;BME280;37207;53.060;18.726;2023-02-23T13:24:09;100528.39;;;9.85;53.83
51147;BME280;37207;53.060;18.726;2023-02-23T13:27:14;100520.03;;;9.76;53.91
51147;BME280;37207;53.060;18.726;2023-02-23T13:29:44;100516.58;;;9.75;54.33
51147;BME280;37207;53.060;18.726;2023-02-23T13:32:23;100513.92;;;9.76;54.29
51147;BME280;37207;53.060;18.726;2023-02-23T13:35:01;100512.96;;;9.82;54.32
51147;BME280;37207;53.060;18.726;2023-02-23T13:43:30;100498.02;;;9.92;54.08
51147;BME280;37207;53.060;18.726;2023-02-23T13:48:57;100493.35;;;9.79;54.08
51147;BME280;37207;53.060;18.726;2023-02-23T13:51:35;100487.08;;;9.63;54.16
51147;BME280;37207;53.060;18.726;2023-02-23T13:56:47;100482.75;;;9.26;54.32
51147;BME280;37207;53.060;18.726;2023-02-23T13:59:26;100479.07;;;9.05;54.38
51147;BME280;37207;53.060;18.726;2023-02-23T14:02:01;100475.20;;;8.82;54.63
51147;BME280;37207;53.060;18.726;2023-02-23T14:04:41;100472.77;;;8.58;55.00
51147;BME280;37207;53.060;18.726;2023-02-23T14:09:36;100465.48;;;8.17;55.87
51147;BME280;37207;53.060;18.726;2023-02-23T14:12:13;100461.20;;;7.99;56.49
51147;BME280;37207;53.060;18.726;2023-02-23T14:14:45;100466.13;;;7.83;57.06
51147;BME280;37207;53.060;18.726;2023-02-23T14:20:01;100456.66;;;7.55;57.56
51147;BME280;37207;53.060;18.726;2023-02-23T14:22:33;100457.94;;;7.42;58.27
51147;BME280;37207;53.060;18.726;2023-02-23T14:28:01;100445.89;;;7.23;58.83
51147;BME280;37207;53.060;18.726;2023-02-23T14:30:47;100443.68;;;7.12;58.55
51147;BME280;37207;53.060;18.726;2023-02-23T14:33:47;100440.11;;;7.00;58.97
51147;BME280;37207;53.060;18.726;2023-02-23T14:39:00;100434.40;;;6.78;59.58
51147;BME280;37207;53.060;18.726;2023-02-23T14:41:59;100434.13;;;6.66;59.82
51147;BME280;37207;53.060;18.726;2023-02-23T14:44:34;100435.01;;;6.54;60.62
51147;BME280;37207;53.060;18.726;2023-02-23T14:47:13;100433.33;;;6.44;60.69
51147;BME280;37207;53.060;18.726;2023-02-23T14:49:47;100432.60;;;6.37;60.88
51147;BME280;37207;53.060;18.726;2023-02-23T14:52:20;100436.97;;;6.30;61.14
51147;BME280;37207;53.060;18.726;2023-02-23T14:54:47;100441.76;;;6.24;61.62
51147;BME280;37207;53.060;18.726;2023-02-23T14:59:50;100431.98;;;6.11;61.92
51147;BME280;37207;53.060;18.726;2023-02-23T15:02:22;100434.77;;;6.05;62.11
51147;BME280;37207;53.060;18.726;2023-02-23T15:04:49;100436.52;;;6.00;62.22
51147;BME280;37207;53.060;18.726;2023-02-23T15:07:36;100434.61;;;5.92;62.45
51147;BME280;37207;53.060;18.726;2023-02-23T15:10:09;100431.69;;;5.85;63.09
51147;BME280;37207;53.060;18.726;2023-02-23T15:12:37;100428.20;;;5.79;63.01
51147;BME280;37207;53.060;18.726;2023-02-23T15:15:10;100423.05;;;5.73;63.15